createdAt,value
2022-12-22T00:01:04.863Z,14.90
2022-12-22T00:06:28.292Z,13.18
2022-12-22T00:11:48.399Z,14.07
2022-12-22T00:17:08.465Z,13.82
2022-12-22T00:22:41.201Z,13.73
2022-12-22T00:28:01.306Z,14.15
2022-12-22T00:33:23.801Z,13.88
2022-12-22T00:38:43.820Z,14.48
2022-12-22T00:44:04.072Z,14.55
2022-12-22T00:49:24.142Z,15.05
2022-12-22T00:54:44.156Z,13.88
2022-12-22T01:00:05.461Z,15.15
2022-12-22T01:05:26.188Z,18.42
2022-12-22T01:10:46.259Z,17.38
2022-12-22T01:16:06.354Z,17.30
2022-12-22T01:21:27.243Z,15.65
2022-12-22T01:26:47.037Z,15.27
2022-12-22T01:32:06.902Z,14.88
2022-12-22T01:37:27.022Z,13.27
2022-12-22T01:42:49.817Z,12.82
2022-12-22T01:48:09.870Z,11.90
2022-12-22T01:53:36.310Z,11.55
2022-12-22T01:59:00.894Z,12.88
2022-12-22T02:04:21.047Z,10.13
2022-12-22T02:09:44.197Z,10.57
2022-12-22T02:15:19.874Z,8.23
2022-12-22T02:20:48.983Z,8.40
2022-12-22T02:26:18.112Z,8.45
2022-12-22T02:31:38.124Z,8.18
2022-12-22T02:37:41.004Z,7.85
2022-12-22T02:43:13.225Z,7.93
2022-12-22T02:48:40.713Z,7.35
2022-12-22T02:54:00.914Z,7.50
2022-12-22T02:59:21.003Z,7.25
2022-12-22T03:04:41.234Z,6.68
2022-12-22T03:10:01.306Z,7.93
2022-12-22T03:15:21.366Z,6.28
2022-12-22T03:20:41.504Z,6.28
2022-12-22T03:25:53.200Z,6.93
2022-12-22T03:31:04.614Z,6.75
2022-12-22T03:36:07.138Z,5.80
2022-12-22T03:41:28.555Z,5.43
2022-12-22T03:46:33.079Z,6.82
2022-12-22T03:51:36.202Z,6.30
2022-12-22T03:56:37.673Z,6.95
2022-12-22T04:01:42.456Z,14.07
2022-12-22T04:06:44.566Z,6.75
2022-12-22T04:12:04.654Z,5.40
2022-12-22T04:17:07.337Z,5.93
2022-12-22T04:22:08.895Z,5.60
2022-12-22T04:27:10.340Z,5.72
2022-12-22T04:32:11.837Z,7.65
2022-12-22T04:37:17.400Z,6.07
2022-12-22T04:42:19.375Z,6.38
2022-12-22T04:47:20.810Z,11.65
2022-12-22T04:52:22.695Z,10.57
2022-12-22T04:57:24.176Z,7.25
2022-12-22T05:02:25.692Z,5.82
2022-12-22T05:07:27.265Z,6.20
2022-12-22T05:12:49.110Z,6.97
2022-12-22T05:17:50.740Z,7.40
2022-12-22T05:22:52.221Z,7.57
2022-12-22T05:27:53.699Z,6.28
2022-12-22T05:32:55.182Z,6.05
2022-12-22T05:37:56.709Z,7.10
2022-12-22T05:42:58.150Z,7.50
2022-12-22T05:47:59.575Z,7.88
2022-12-22T05:53:01.025Z,6.85
2022-12-22T05:58:02.657Z,7.65
2022-12-22T06:03:04.315Z,7.82
2022-12-22T06:08:05.762Z,7.72
2022-12-22T06:13:07.208Z,8.10
2022-12-22T06:18:08.632Z,7.32
2022-12-22T06:23:10.058Z,7.40
2022-12-22T06:28:11.482Z,6.93
2022-12-22T06:33:12.920Z,7.90
2022-12-22T06:38:14.364Z,7.57
2022-12-22T06:43:15.859Z,7.95
2022-12-22T06:48:17.400Z,6.95
2022-12-22T06:53:18.842Z,8.00
2022-12-22T06:58:20.273Z,8.25
2022-12-22T07:03:21.809Z,9.85
2022-12-22T07:08:23.352Z,11.30
2022-12-22T07:13:31.565Z,10.43
2022-12-22T07:18:35.282Z,8.27
2022-12-22T07:23:37.565Z,8.20
2022-12-22T07:28:40.963Z,8.93
2022-12-22T07:33:42.419Z,10.45
2022-12-22T07:38:46.637Z,14.68
2022-12-22T07:43:48.121Z,11.70
2022-12-22T07:49:08.266Z,12.60
2022-12-22T07:54:12.093Z,9.85
2022-12-22T07:59:14.352Z,9.05
2022-12-22T08:04:15.944Z,10.30
2022-12-22T08:09:18.105Z,10.13
2022-12-22T08:14:19.567Z,8.98
2022-12-22T08:19:21.011Z,9.43
2022-12-22T08:24:22.594Z,9.45
2022-12-22T08:29:29.110Z,9.95
2022-12-22T08:34:30.801Z,10.35
2022-12-22T08:39:37.561Z,9.88
2022-12-22T08:44:39.133Z,10.80
2022-12-22T08:49:41.134Z,10.88
2022-12-22T08:54:42.778Z,11.13
2022-12-22T08:59:44.246Z,12.82
2022-12-22T09:04:45.801Z,11.20
2022-12-22T09:09:47.243Z,11.77
2022-12-22T09:14:48.834Z,11.48
2022-12-22T09:19:50.287Z,11.30
2022-12-22T09:24:51.736Z,10.48
2022-12-22T09:29:53.199Z,11.55
2022-12-22T09:34:54.638Z,10.93
2022-12-22T09:39:56.108Z,10.02
2022-12-22T09:44:57.601Z,7.22
2022-12-22T09:49:59.513Z,6.65
2022-12-22T09:55:12.384Z,7.32
2022-12-22T10:00:16.263Z,9.27
2022-12-22T10:05:30.967Z,7.50
2022-12-22T10:10:32.544Z,6.57
2022-12-22T10:15:39.883Z,7.03
2022-12-22T10:20:44.685Z,6.88
2022-12-22T10:31:22.922Z,6.60
2022-12-22T10:36:28.001Z,7.85
2022-12-22T10:41:32.877Z,8.10
2022-12-22T10:46:48.181Z,7.43
2022-12-22T10:52:09.911Z,6.50
2022-12-22T10:57:14.043Z,8.35
2022-12-22T11:02:22.619Z,8.82
2022-12-22T11:07:25.017Z,6.75
2022-12-22T11:12:47.409Z,7.22
2022-12-22T11:17:57.796Z,7.72
2022-12-22T11:23:18.322Z,7.38
2022-12-22T11:28:45.944Z,7.75
2022-12-22T11:34:20.779Z,7.85
2022-12-22T11:45:29.264Z,8.23
2022-12-22T11:51:00.345Z,7.90
2022-12-22T11:56:32.098Z,7.93
2022-12-22T12:01:48.722Z,7.53
2022-12-22T12:07:00.921Z,7.15
2022-12-22T12:12:13.116Z,7.38
2022-12-22T12:17:25.123Z,7.13
2022-12-22T12:22:52.803Z,5.40
2022-12-22T12:28:05.439Z,6.20
2022-12-22T12:33:28.492Z,5.13
2022-12-22T12:39:07.440Z,4.57
2022-12-22T12:44:04.876Z,4.68
2022-12-22T12:49:36.246Z,4.00
2022-12-22T12:54:41.583Z,4.10
2022-12-22T12:59:47.238Z,3.90
2022-12-22T13:05:14.330Z,4.70
2022-12-22T13:10:21.955Z,4.20
2022-12-22T13:15:37.475Z,5.70
2022-12-22T13:20:42.548Z,5.22
2022-12-22T13:25:55.096Z,7.50
2022-12-22T13:31:13.826Z,8.27
2022-12-22T13:36:22.026Z,6.40
2022-12-22T13:48:06.135Z,5.90
2022-12-22T13:53:34.439Z,4.97
2022-12-22T13:58:41.548Z,5.03
2022-12-22T14:04:04.794Z,4.88
2022-12-22T14:09:18.464Z,6.68
2022-12-22T14:14:24.665Z,6.00
2022-12-22T14:19:33.720Z,6.43
2022-12-22T14:24:44.505Z,6.63
2022-12-22T14:29:46.067Z,6.05
2022-12-22T14:34:53.988Z,5.47
2022-12-22T14:39:56.392Z,5.93
2022-12-22T14:44:58.346Z,6.82
2022-12-22T14:50:16.885Z,6.85
2022-12-22T14:55:25.298Z,7.33
2022-12-22T15:00:34.008Z,7.20
2022-12-22T15:05:39.060Z,7.95
2022-12-22T15:10:44.645Z,5.53
2022-12-22T15:15:46.068Z,5.35
2022-12-22T15:20:47.492Z,5.50
2022-12-22T15:25:48.989Z,5.40
2022-12-22T15:30:50.425Z,6.30
2022-12-22T15:35:52.538Z,6.40
2022-12-22T15:41:00.271Z,6.65
2022-12-22T15:46:03.677Z,6.30
2022-12-22T15:51:08.579Z,6.10
2022-12-22T15:56:18.088Z,7.57
2022-12-22T16:01:20.410Z,7.57
2022-12-22T16:06:22.823Z,5.75
2022-12-22T16:11:25.058Z,7.28
2022-12-22T16:16:26.527Z,6.85
2022-12-22T16:21:31.619Z,5.57
2022-12-22T16:26:33.139Z,6.65
2022-12-22T16:31:34.625Z,6.20
2022-12-22T16:36:36.084Z,6.03
2022-12-22T16:41:37.920Z,6.63
2022-12-22T16:46:39.603Z,6.55
2022-12-22T16:51:49.625Z,7.38
2022-12-22T16:56:57.449Z,8.75
2022-12-22T17:01:59.045Z,14.85
2022-12-22T17:07:02.168Z,9.27
2022-12-22T17:12:10.746Z,12.75
2022-12-22T17:17:32.889Z,11.47
2022-12-22T17:22:39.180Z,7.93
2022-12-22T17:27:40.839Z,8.63
2022-12-22T17:32:42.385Z,9.10
2022-12-22T17:37:46.186Z,11.73
2022-12-22T17:42:47.773Z,9.20
2022-12-22T17:47:49.212Z,10.02
2022-12-22T17:52:50.764Z,8.38
2022-12-22T17:57:53.542Z,6.35
2022-12-22T18:02:55.605Z,5.88
2022-12-22T18:07:58.948Z,5.97
2022-12-22T18:13:01.582Z,5.88
2022-12-22T18:18:03.104Z,5.85
2022-12-22T18:23:04.904Z,5.93
2022-12-22T18:28:06.767Z,5.82
2022-12-22T18:33:08.943Z,5.40
2022-12-22T18:38:32.958Z,5.35
2022-12-22T18:43:34.430Z,6.00
2022-12-22T18:48:35.890Z,6.15
2022-12-22T18:53:37.313Z,5.43
2022-12-22T18:58:39.790Z,5.03
2022-12-22T19:03:41.229Z,5.43
2022-12-22T19:08:45.989Z,5.30
2022-12-22T19:13:51.965Z,6.07
2022-12-22T19:18:55.097Z,5.28
2022-12-22T19:23:56.542Z,5.70
2022-12-22T19:29:01.460Z,5.63
2022-12-22T19:34:05.421Z,5.68
2022-12-22T19:39:06.909Z,5.38
2022-12-22T19:44:17.196Z,5.32
2022-12-22T19:49:22.406Z,5.25
2022-12-22T19:54:24.379Z,6.18
2022-12-22T19:59:38.531Z,5.68
2022-12-22T20:04:40.705Z,6.13
2022-12-22T20:09:42.257Z,7.45
2022-12-22T20:14:43.762Z,4.63
2022-12-22T20:19:45.187Z,5.93
2022-12-22T20:24:48.669Z,5.00
2022-12-22T20:29:50.180Z,5.68
2022-12-22T20:34:51.627Z,4.93
2022-12-22T20:39:53.081Z,5.30
2022-12-22T20:45:02.791Z,4.90
2022-12-22T20:50:23.904Z,5.47
2022-12-22T20:55:28.438Z,6.13
2022-12-22T21:00:29.891Z,6.32
2022-12-22T21:05:31.370Z,5.72
2022-12-22T21:10:32.782Z,6.00
2022-12-22T21:15:34.624Z,5.40
2022-12-22T21:20:36.052Z,5.85
2022-12-22T21:25:43.181Z,5.93
2022-12-22T21:30:47.838Z,5.95
2022-12-22T21:35:50.849Z,8.40
2022-12-22T21:40:52.318Z,6.15
2022-12-22T21:45:53.858Z,6.53
2022-12-22T21:50:55.724Z,6.22
2022-12-22T21:55:57.145Z,6.90
2022-12-22T22:00:58.624Z,5.70
2022-12-22T22:06:00.116Z,5.35
2022-12-22T22:11:01.537Z,5.80
2022-12-22T22:16:03.113Z,6.32
2022-12-22T22:21:07.690Z,6.63
2022-12-22T22:26:09.851Z,6.07
2022-12-22T22:31:11.683Z,6.35
2022-12-22T22:36:13.765Z,5.88
2022-12-22T22:41:15.277Z,6.70
2022-12-22T22:46:16.749Z,5.70
2022-12-22T22:51:18.185Z,5.85
2022-12-22T22:56:19.613Z,6.03
2022-12-22T23:01:21.076Z,5.80
2022-12-22T23:06:22.573Z,5.70
2022-12-22T23:11:24.030Z,5.13
2022-12-22T23:16:25.704Z,5.22
2022-12-22T23:21:27.511Z,5.97
2022-12-22T23:26:28.985Z,6.80
2022-12-22T23:31:34.381Z,6.38
2022-12-22T23:36:35.865Z,6.70
2022-12-22T23:41:37.353Z,5.85
2022-12-22T23:46:40.102Z,6.28
2022-12-22T23:51:41.608Z,6.25
2022-12-22T23:56:43.068Z,6.63
